createdAt,value
2018-09-22T00:00:29.017Z,64.459229
2018-09-22T00:01:28.986Z,64.056396
2018-09-22T00:02:30.066Z,63.549805
2018-09-22T00:03:29.039Z,63.549805
2018-09-22T00:04:29.092Z,62.469482
2018-09-22T00:05:29.290Z,63.17749
2018-09-22T00:06:29.369Z,63.482666
2018-09-22T00:07:29.500Z,63.580322
2018-09-22T00:08:29.631Z,62.268066
2018-09-22T00:09:29.698Z,62.06665
2018-09-22T00:10:29.798Z,62.438965
2018-09-22T00:11:29.798Z,63.079834
2018-09-22T00:12:29.924Z,62.774658
2018-09-22T00:13:30.043Z,62.872314
2018-09-22T00:14:30.057Z,62.438965
2018-09-22T00:15:30.096Z,63.079834
2018-09-22T00:16:30.036Z,63.146973
2018-09-22T00:17:30.160Z,62.036133
2018-09-22T00:18:30.127Z,62.341309
2018-09-22T00:19:30.308Z,62.237549
2018-09-22T00:20:30.250Z,63.079834
2018-09-22T00:21:30.177Z,62.945557
2018-09-22T00:22:30.327Z,62.8479
2018-09-22T00:23:30.295Z,62.945557
2018-09-22T00:24:30.383Z,63.049316
2018-09-22T00:25:30.420Z,63.653564
2018-09-22T00:26:30.567Z,64.39209
2018-09-22T00:27:30.685Z,63.781738
2018-09-22T00:28:30.572Z,63.885498
2018-09-22T00:29:30.708Z,63.989258
2018-09-22T00:30:30.856Z,63.684082
2018-09-22T00:31:30.950Z,63.653564
2018-09-22T00:32:30.930Z,63.757324
2018-09-22T00:33:31.073Z,63.348389
2018-09-22T00:34:31.191Z,63.250732
2018-09-22T00:35:31.409Z,63.28125
2018-09-22T00:36:32.502Z,63.409424
2018-09-22T00:37:31.473Z,63.7146
2018-09-22T00:38:31.623Z,64.019775
2018-09-22T00:39:31.613Z,64.221191
2018-09-22T00:40:31.687Z,64.117432
2018-09-22T00:41:31.762Z,63.916016
2018-09-22T00:42:31.907Z,63.989258
2018-09-22T00:43:31.919Z,63.916016
2018-09-22T00:44:31.956Z,63.409424
2018-09-22T00:45:32.130Z,63.513184
2018-09-22T00:46:32.197Z,63.378906
2018-09-22T00:47:32.317Z,64.086914
2018-09-22T00:48:32.497Z,64.422607
2018-09-22T00:49:32.543Z,64.221191
2018-09-22T00:50:32.700Z,63.61084
2018-09-22T00:51:32.834Z,63.812256
2018-09-22T00:52:32.983Z,63.781738
2018-09-22T00:53:32.999Z,63.409424
2018-09-22T00:54:33.260Z,63.812256
2018-09-22T00:55:33.183Z,64.019775
2018-09-22T00:56:33.224Z,64.117432
2018-09-22T00:57:33.311Z,63.812256
2018-09-22T00:58:33.324Z,63.812256
2018-09-22T00:59:33.412Z,64.117432
2018-09-22T01:00:33.520Z,64.019775
2018-09-22T01:01:33.566Z,63.916016
2018-09-22T01:02:33.662Z,63.079834
2018-09-22T01:03:33.751Z,63.409424
2018-09-22T01:04:33.905Z,63.61084
2018-09-22T01:05:33.922Z,64.221191
2018-09-22T01:06:34.054Z,64.019775
2018-09-22T01:07:34.057Z,64.221191
2018-09-22T01:08:34.122Z,63.989258
2018-09-22T01:09:34.274Z,63.916016
2018-09-22T01:10:34.410Z,64.117432
2018-09-22T01:11:34.614Z,64.019775
2018-09-22T01:12:34.550Z,64.624023
2018-09-22T01:13:34.663Z,64.019775
2018-09-22T01:14:34.785Z,64.221191
2018-09-22T01:15:34.768Z,64.318848
2018-09-22T01:16:34.773Z,64.28833
2018-09-22T01:17:34.892Z,63.684082
2018-09-22T01:18:35.022Z,63.17749
2018-09-22T01:19:35.176Z,63.61084
2018-09-22T01:20:35.138Z,63.439941
2018-09-22T01:21:35.161Z,63.543701
2018-09-22T01:22:35.405Z,63.409424
2018-09-22T01:23:35.364Z,63.311768
2018-09-22T01:24:35.512Z,63.311768
2018-09-22T01:25:35.509Z,63.378906
2018-09-22T01:26:35.699Z,63.580322
2018-09-22T01:27:35.659Z,63.61084
2018-09-22T01:28:35.722Z,63.513184
2018-09-22T01:29:35.850Z,63.104248
2018-09-22T01:30:35.808Z,62.976074
2018-09-22T01:31:35.955Z,63.61084
2018-09-22T01:32:36.042Z,64.019775
2018-09-22T01:33:36.174Z,61.865234
2018-09-22T01:34:36.376Z,61.083984
2018-09-22T01:35:36.456Z,61.486816
2018-09-22T01:36:36.480Z,61.590576
2018-09-22T01:37:36.700Z,61.895752
2018-09-22T01:38:36.661Z,63.439941
2018-09-22T01:39:36.747Z,63.543701
2018-09-22T01:40:36.695Z,62.298584
2018-09-22T01:41:36.890Z,61.791992
2018-09-22T01:42:36.831Z,61.791992
2018-09-22T01:43:36.872Z,62.329102
2018-09-22T01:44:36.965Z,62.39624
2018-09-22T01:45:36.947Z,62.39624
2018-09-22T01:46:37.083Z,62.298584
2018-09-22T01:47:37.112Z,62.298584
2018-09-22T01:48:37.277Z,62.371826
2018-09-22T01:49:37.272Z,62.701416
2018-09-22T01:50:37.383Z,63.238525
2018-09-22T01:51:37.501Z,63.311768
2018-09-22T01:52:37.693Z,62.701416
2018-09-22T01:53:37.628Z,62.268066
2018-09-22T01:54:37.659Z,61.865234
2018-09-22T01:55:37.766Z,61.865234
2018-09-22T01:56:37.923Z,61.663818
2018-09-22T01:57:38.003Z,61.560059
2018-09-22T01:58:38.140Z,61.761475
2018-09-22T01:59:38.282Z,61.663818
2018-09-22T02:00:38.273Z,61.462402
2018-09-22T02:01:38.426Z,61.358643
2018-09-22T02:02:38.436Z,61.560059
2018-09-22T02:03:38.431Z,61.865234
2018-09-22T02:04:38.552Z,62.06665
2018-09-22T02:05:38.702Z,62.06665
2018-09-22T02:06:38.693Z,61.865234
2018-09-22T02:07:38.645Z,62.469482
2018-09-22T02:08:38.784Z,62.469482
2018-09-22T02:09:38.883Z,62.469482
2018-09-22T02:10:38.992Z,62.164307
2018-09-22T02:11:38.906Z,62.701416
2018-09-22T02:12:38.968Z,62.902832
2018-09-22T02:13:38.914Z,63.006592
2018-09-22T02:14:38.880Z,62.902832
2018-09-22T02:15:38.986Z,62.469482
2018-09-22T02:16:38.976Z,62.371826
2018-09-22T02:17:38.977Z,63.208008
2018-09-22T02:18:39.077Z,63.311768
2018-09-22T02:19:39.245Z,62.298584
2018-09-22T02:20:39.241Z,62.5
2018-09-22T02:21:39.203Z,62.902832
2018-09-22T02:22:39.340Z,63.439941
2018-09-22T02:23:39.386Z,63.409424
2018-09-22T02:24:39.469Z,62.5
2018-09-22T02:25:39.616Z,62.701416
2018-09-22T02:26:39.712Z,62.805176
2018-09-22T02:27:39.698Z,62.670898
2018-09-22T02:28:39.724Z,62.573242
2018-09-22T02:29:39.844Z,61.462402
2018-09-22T02:30:39.970Z,61.486816
2018-09-22T02:31:40.099Z,61.2854
2018-09-22T02:32:40.129Z,61.590576
2018-09-22T02:33:40.251Z,61.2854
2018-09-22T02:34:40.357Z,61.38916
2018-09-22T02:35:40.413Z,61.688232
2018-09-22T02:36:40.516Z,61.791992
2018-09-22T02:37:40.649Z,62.298584
2018-09-22T02:38:40.787Z,62.902832
2018-09-22T02:39:40.830Z,63.037109
2018-09-22T02:40:40.888Z,63.037109
2018-09-22T02:41:41.044Z,64.044189
2018-09-22T02:42:41.022Z,63.842773
2018-09-22T02:43:41.091Z,63.208008
2018-09-22T02:44:41.209Z,63.104248
2018-09-22T02:45:41.359Z,62.805176
2018-09-22T02:46:41.524Z,62.902832
2018-09-22T02:47:41.641Z,63.439941
2018-09-22T02:48:41.699Z,63.208008
2018-09-22T02:49:41.801Z,63.409424
2018-09-22T02:50:41.942Z,63.006592
2018-09-22T02:51:42.065Z,62.731934
2018-09-22T02:52:42.020Z,62.561035
2018-09-22T02:53:42.153Z,62.353516
2018-09-22T02:54:42.300Z,62.963867
2018-09-22T02:55:42.473Z,63.067627
2018-09-22T02:56:42.409Z,63.470459
2018-09-22T02:57:42.557Z,62.561035
2018-09-22T02:58:42.506Z,62.457275
2018-09-22T02:59:42.682Z,62.225342
2018-09-22T03:00:42.644Z,62.561035
2018-09-22T03:01:42.696Z,62.023926
2018-09-22T03:02:42.893Z,61.517334
2018-09-22T03:03:42.870Z,60.882568
2018-09-22T03:04:42.830Z,60.809326
2018-09-22T03:05:42.986Z,61.315918
2018-09-22T03:06:43.292Z,60.778809
2018-09-22T03:07:43.149Z,60.577393
2018-09-22T03:08:43.229Z,60.479736
2018-09-22T03:09:43.273Z,61.010742
2018-09-22T03:10:43.533Z,61.547852
2018-09-22T03:11:43.525Z,61.547852
2018-09-22T03:12:43.571Z,61.138916
2018-09-22T03:13:43.756Z,61.138916
2018-09-22T03:14:43.880Z,60.9375
2018-09-22T03:15:43.860Z,61.212158
2018-09-22T03:16:43.995Z,59.796143
2018-09-22T03:17:44.151Z,60.198975
2018-09-22T03:18:44.420Z,60.302734
2018-09-22T03:19:44.370Z,60.302734
2018-09-22T03:20:44.531Z,60.913086
2018-09-22T03:21:44.574Z,61.749268
2018-09-22T03:22:44.628Z,62.1521
2018-09-22T03:23:44.668Z,62.561035
2018-09-22T03:24:44.743Z,62.561035
2018-09-22T03:25:44.923Z,62.353516
2018-09-22T03:26:44.889Z,61.645508
2018-09-22T03:27:44.880Z,61.242676
2018-09-22T03:28:45.044Z,61.645508
2018-09-22T03:29:45.038Z,61.645508
2018-09-22T03:30:45.069Z,61.950684
2018-09-22T03:31:45.215Z,61.413574
2018-09-22T03:32:45.265Z,61.517334
2018-09-22T03:33:45.540Z,61.82251
2018-09-22T03:34:45.511Z,62.225342
2018-09-22T03:35:45.627Z,62.426758
2018-09-22T03:36:45.612Z,63.238525
2018-09-22T03:37:45.705Z,63.543701
2018-09-22T03:38:45.768Z,63.238525
2018-09-22T03:39:45.886Z,62.530518
2018-09-22T03:40:46.109Z,62.731934
2018-09-22T03:41:46.089Z,62.426758
2018-09-22T03:42:46.128Z,62.426758
2018-09-22T03:43:46.259Z,63.671875
2018-09-22T03:44:46.501Z,64.788818
2018-09-22T03:45:46.485Z,65.161133
2018-09-22T03:46:46.453Z,65.594482
2018-09-22T03:47:46.506Z,65.667725
2018-09-22T03:48:46.605Z,66.003418
2018-09-22T03:49:46.729Z,65.087891
2018-09-22T03:50:46.896Z,63.977051
2018-09-22T03:51:46.840Z,64.654541
2018-09-22T03:52:46.951Z,64.453125
2018-09-22T03:53:47.112Z,64.453125
2018-09-22T03:54:47.176Z,64.147949
2018-09-22T03:55:47.219Z,64.483643
2018-09-22T03:56:47.177Z,64.685059
2018-09-22T03:57:47.313Z,64.379883
2018-09-22T03:58:47.304Z,64.819336
2018-09-22T03:59:47.255Z,64.819336
2018-09-22T04:00:47.465Z,64.483643
2018-09-22T04:01:47.366Z,64.51416
2018-09-22T04:02:47.337Z,64.916992
2018-09-22T04:03:47.462Z,64.990234
2018-09-22T04:04:47.507Z,64.581299
2018-09-22T04:05:47.468Z,64.074707
2018-09-22T04:06:47.562Z,64.147949
2018-09-22T04:07:47.725Z,64.044189
2018-09-22T04:08:47.717Z,63.641357
2018-09-22T04:09:47.806Z,64.074707
2018-09-22T04:10:47.825Z,64.282227
2018-09-22T04:11:48.126Z,64.147949
2018-09-22T04:12:48.056Z,64.453125
2018-09-22T04:13:48.087Z,64.147949
2018-09-22T04:14:48.171Z,64.581299
2018-09-22T04:15:48.455Z,64.251709
2018-09-22T04:16:48.468Z,63.946533
2018-09-22T04:17:48.514Z,64.044189
2018-09-22T04:18:48.627Z,64.147949
2018-09-22T04:19:48.790Z,64.147949
2018-09-22T04:20:48.916Z,63.946533
2018-09-22T04:21:48.996Z,64.379883
2018-09-22T04:22:48.953Z,64.379883
2018-09-22T04:23:49.068Z,64.788818
2018-09-22T04:24:49.078Z,64.788818
2018-09-22T04:25:49.159Z,64.886475
2018-09-22T04:26:49.395Z,64.788818
2018-09-22T04:27:49.331Z,64.685059
2018-09-22T04:28:49.455Z,64.788818
2018-09-22T04:29:49.519Z,64.685059
2018-09-22T04:30:49.737Z,64.990234
2018-09-22T04:31:49.735Z,64.990234
2018-09-22T04:32:49.744Z,64.788818
2018-09-22T04:33:49.884Z,64.581299
2018-09-22T04:34:50.091Z,64.483643
2018-09-22T04:35:50.039Z,64.819336
2018-09-22T04:36:50.173Z,65.319824
2018-09-22T04:37:50.137Z,65.527344
2018-09-22T04:38:50.286Z,65.72876
2018-09-22T04:39:50.378Z,65.625
2018-09-22T04:40:50.454Z,65.423584
2018-09-22T04:41:50.616Z,65.222168
2018-09-22T04:42:50.708Z,65.087891
2018-09-22T04:43:50.782Z,64.990234
2018-09-22T04:44:50.950Z,64.788818
2018-09-22T04:45:50.993Z,64.886475
2018-09-22T04:46:51.174Z,64.886475
2018-09-22T04:47:51.197Z,64.685059
2018-09-22T04:48:51.236Z,64.685059
2018-09-22T04:49:51.344Z,64.788818
2018-09-22T04:50:51.322Z,64.788818
2018-09-22T04:51:51.509Z,65.423584
2018-09-22T04:52:51.448Z,65.222168
2018-09-22T04:53:51.425Z,65.527344
2018-09-22T04:54:51.603Z,65.118408
2018-09-22T04:55:51.589Z,64.990234
2018-09-22T04:56:51.633Z,65.118408
2018-09-22T04:57:51.616Z,64.886475
2018-09-22T04:58:51.668Z,64.788818
2018-09-22T04:59:51.705Z,64.685059
2018-09-22T05:00:51.774Z,64.581299
2018-09-22T05:01:51.854Z,65.118408
2018-09-22T05:02:51.901Z,65.319824
2018-09-22T05:03:52.058Z,65.19165
2018-09-22T05:04:52.179Z,65.19165
2018-09-22T05:05:52.204Z,65.319824
2018-09-22T05:06:53.329Z,65.930176
2018-09-22T05:07:52.365Z,65.625
2018-09-22T05:08:52.443Z,65.319824
2018-09-22T05:09:52.629Z,65.527344
2018-09-22T05:10:52.511Z,65.527344
2018-09-22T05:11:52.576Z,65.72876
2018-09-22T05:12:52.631Z,65.625
2018-09-22T05:13:52.639Z,65.72876
2018-09-22T05:14:52.723Z,65.527344
2018-09-22T05:15:52.837Z,65.19165
2018-09-22T05:16:52.981Z,65.423584
2018-09-22T05:17:53.040Z,65.527344
2018-09-22T05:18:53.084Z,65.625
2018-09-22T05:19:53.136Z,65.960693
2018-09-22T05:20:53.236Z,66.033936
2018-09-22T05:21:53.300Z,66.265869
2018-09-22T05:22:53.335Z,66.668701
2018-09-22T05:23:53.480Z,66.369629
2018-09-22T05:24:53.768Z,66.571045
2018-09-22T05:25:53.578Z,66.265869
2018-09-22T05:26:53.553Z,66.772461
2018-09-22T05:27:53.630Z,66.333008
2018-09-22T05:28:53.725Z,66.467285
2018-09-22T05:29:53.801Z,66.772461
2018-09-22T05:30:54.051Z,66.571045
2018-09-22T05:31:54.157Z,65.930176
2018-09-22T05:32:54.199Z,65.826416
2018-09-22T05:33:54.371Z,66.235352
2018-09-22T05:34:54.472Z,66.467285
2018-09-22T05:35:54.637Z,66.467285
2018-09-22T05:36:54.558Z,66.235352
2018-09-22T05:37:54.716Z,66.131592
2018-09-22T05:38:54.749Z,65.930176
2018-09-22T05:39:54.887Z,66.064453
2018-09-22T05:40:54.952Z,66.668701
2018-09-22T05:41:55.195Z,66.973877
2018-09-22T05:42:56.221Z,66.876221
2018-09-22T05:43:55.308Z,66.333008
2018-09-22T05:44:55.415Z,66.033936
2018-09-22T05:45:55.621Z,66.131592
2018-09-22T05:46:55.682Z,65.72876
2018-09-22T05:47:55.731Z,65.930176
2018-09-22T05:48:55.757Z,66.235352
2018-09-22T05:49:55.909Z,66.033936
2018-09-22T05:50:55.767Z,65.72876
2018-09-22T05:51:55.840Z,65.826416
2018-09-22T05:52:55.962Z,65.72876
2018-09-22T05:53:55.912Z,65.72876
2018-09-22T05:54:56.014Z,65.625
2018-09-22T05:55:56.130Z,65.72876
2018-09-22T05:56:56.383Z,66.033936
2018-09-22T05:57:56.255Z,66.235352
2018-09-22T05:58:56.348Z,65.72876
2018-09-22T05:59:56.421Z,66.131592
2018-09-22T06:00:56.547Z,66.033936
2018-09-22T06:01:56.550Z,66.235352
2018-09-22T06:02:56.587Z,66.131592
2018-09-22T06:03:56.846Z,66.436768
2018-09-22T06:04:56.698Z,66.741943
2018-09-22T06:05:56.808Z,66.436768
2018-09-22T06:06:56.934Z,65.899658
2018-09-22T06:07:57.000Z,65.795898
2018-09-22T06:08:57.057Z,65.594482
2018-09-22T06:09:57.205Z,65.899658
2018-09-22T06:10:57.246Z,66.003418
2018-09-22T06:11:57.442Z,66.101074
2018-09-22T06:12:57.356Z,65.899658
2018-09-22T06:13:57.481Z,65.667725
2018-09-22T06:14:57.543Z,65.466309
2018-09-22T06:15:57.690Z,64.855957
2018-09-22T06:16:57.835Z,64.654541
2018-09-22T06:17:57.861Z,64.855957
2018-09-22T06:18:57.975Z,64.654541
2018-09-22T06:19:58.053Z,64.624023
2018-09-22T06:20:58.147Z,64.422607
2018-09-22T06:21:59.299Z,64.318848
2018-09-22T06:22:58.379Z,64.422607
2018-09-22T06:23:58.450Z,64.520264
2018-09-22T06:24:58.570Z,64.349365
2018-09-22T06:25:58.627Z,64.520264
2018-09-22T06:26:58.873Z,64.520264
2018-09-22T06:27:58.829Z,64.221191
2018-09-22T06:28:58.991Z,63.989258
2018-09-22T06:29:59.124Z,64.520264
2018-09-22T06:30:59.242Z,64.520264
2018-09-22T06:31:59.363Z,64.318848
2018-09-22T06:32:59.493Z,64.727783
2018-09-22T06:33:59.538Z,64.624023
2018-09-22T06:34:59.538Z,64.654541
2018-09-22T06:35:59.636Z,64.654541
2018-09-22T06:36:59.709Z,64.520264
2018-09-22T06:38:00.734Z,64.520264
2018-09-22T06:38:59.798Z,64.520264
2018-09-22T06:39:59.766Z,64.520264
2018-09-22T06:40:59.844Z,64.855957
2018-09-22T06:41:59.830Z,65.161133
2018-09-22T06:43:00.015Z,65.130615
2018-09-22T06:44:00.055Z,64.520264
2018-09-22T06:45:00.104Z,64.855957
2018-09-22T06:46:00.098Z,65.362549
2018-09-22T06:47:00.213Z,64.825439
2018-09-22T06:48:00.265Z,64.624023
2018-09-22T06:49:00.299Z,64.28833
2018-09-22T06:50:00.379Z,64.422607
2018-09-22T06:51:00.510Z,64.221191
2018-09-22T06:52:00.534Z,64.520264
2018-09-22T06:53:00.692Z,64.727783
2018-09-22T06:54:00.708Z,64.624023
2018-09-22T06:55:00.848Z,64.422607
2018-09-22T06:56:00.855Z,64.727783
2018-09-22T06:57:00.998Z,64.39209
2018-09-22T06:58:00.984Z,64.190674
2018-09-22T06:59:01.154Z,64.190674
2018-09-22T07:00:01.120Z,64.39209
2018-09-22T07:01:01.237Z,64.086914
2018-09-22T07:02:01.288Z,64.28833
2018-09-22T07:03:01.329Z,64.056396
2018-09-22T07:04:01.340Z,63.989258
2018-09-22T07:05:01.411Z,64.190674
2018-09-22T07:06:01.486Z,63.989258
2018-09-22T07:07:01.578Z,63.684082
2018-09-22T07:08:01.567Z,63.757324
2018-09-22T07:09:01.809Z,63.653564
2018-09-22T07:10:01.871Z,63.653564
2018-09-22T07:11:01.873Z,63.95874
2018-09-22T07:12:01.926Z,63.85498
2018-09-22T07:13:02.043Z,64.056396
2018-09-22T07:14:02.271Z,63.85498
2018-09-22T07:15:02.309Z,64.361572
2018-09-22T07:16:02.439Z,64.257812
2018-09-22T07:18:02.613Z,63.824463
2018-09-22T07:19:02.662Z,64.056396
2018-09-22T07:20:02.671Z,64.257812
2018-09-22T07:21:02.813Z,63.928223
2018-09-22T07:22:02.869Z,63.85498
2018-09-22T07:23:03.007Z,63.726807
2018-09-22T07:24:03.005Z,63.519287
2018-09-22T07:25:03.100Z,63.824463
2018-09-22T07:26:03.103Z,64.056396
2018-09-22T07:27:03.124Z,64.160156
2018-09-22T07:28:03.176Z,64.361572
2018-09-22T07:29:03.320Z,64.459229
2018-09-22T07:30:03.503Z,63.95874
2018-09-22T07:31:03.608Z,63.623047
2018-09-22T07:32:03.586Z,63.519287
2018-09-22T07:33:03.737Z,63.220215
2018-09-22T07:34:03.822Z,63.317871
2018-09-22T07:35:03.964Z,63.726807
2018-09-22T07:36:03.914Z,63.726807
2018-09-22T07:37:04.060Z,63.519287
2018-09-22T07:38:04.180Z,63.757324
2018-09-22T07:39:04.196Z,64.160156
2018-09-22T07:41:04.443Z,64.025879
2018-09-22T07:42:04.677Z,63.928223
2018-09-22T07:43:04.665Z,63.824463
2018-09-22T07:44:04.664Z,64.227295
2018-09-22T07:46:20.478Z,64.361572
2018-09-22T07:47:20.491Z,64.056396
2018-09-22T07:48:20.527Z,63.726807
2018-09-22T07:49:20.589Z,63.220215
2018-09-22T07:50:20.732Z,62.915039
2018-09-22T07:51:20.842Z,63.220215
2018-09-22T07:52:20.839Z,62.713623
2018-09-22T07:53:20.953Z,62.615967
2018-09-22T07:54:20.992Z,62.310791
2018-09-22T07:55:21.151Z,61.834717
2018-09-22T07:56:21.197Z,62.109375
2018-09-22T07:57:21.193Z,61.907959
2018-09-22T08:00:34.822Z,61.297607
2018-09-22T08:00:50.716Z,62.341309
2018-09-22T08:01:50.903Z,62.945557
2018-09-22T08:02:51.025Z,62.744141
2018-09-22T08:03:50.960Z,62.8479
2018-09-22T08:04:51.045Z,62.744141
2018-09-22T08:05:51.156Z,62.542725
2018-09-22T08:06:51.230Z,62.438965
2018-09-22T08:07:51.264Z,62.207031
2018-09-22T08:10:32.267Z,61.907959
2018-09-22T08:11:06.355Z,61.676025
2018-09-22T08:12:06.312Z,61.138916
2018-09-22T08:13:06.294Z,60.839844
2018-09-22T08:14:06.440Z,60.406494
2018-09-22T08:15:07.438Z,60.60791
2018-09-22T08:16:06.956Z,60.510254
2018-09-22T08:17:06.696Z,60.71167
2018-09-22T08:38:56.993Z,60.437012
2018-09-22T08:39:57.311Z,60.333252
2018-09-22T08:42:54.266Z,61.877441
2018-09-22T08:43:54.509Z,61.572266
2018-09-22T08:44:54.458Z,61.444092
2018-09-22T08:45:54.453Z,61.04126
2018-09-22T08:46:54.556Z,61.138916
2018-09-22T09:11:04.177Z,59.368896
2018-09-22T09:12:04.164Z,58.764648
2018-09-22T09:13:04.248Z,58.996582
2018-09-22T09:14:04.388Z,59.295654
2018-09-22T09:15:04.392Z,59.094238
2018-09-22T09:16:04.438Z,58.691406
2018-09-22T09:17:04.597Z,59.094238
2018-09-22T09:18:04.666Z,59.069824
2018-09-22T09:19:04.827Z,59.368896
2018-09-22T09:20:05.055Z,59.472656
2018-09-22T09:21:04.949Z,59.368896
2018-09-22T09:22:04.981Z,58.868408
2018-09-22T09:23:05.230Z,58.837891
2018-09-22T09:24:05.318Z,58.538818
2018-09-22T09:25:05.210Z,58.233643
2018-09-22T09:26:05.324Z,58.740234
2018-09-22T09:27:05.373Z,58.306885
2018-09-22T09:28:05.538Z,57.806396
2018-09-22T09:29:05.611Z,57.574463
2018-09-22T09:30:05.640Z,57.373047
2018-09-22T09:31:05.681Z,57.299805
2018-09-22T09:32:05.717Z,57.299805
2018-09-22T09:33:05.847Z,56.872559
2018-09-22T09:34:05.974Z,56.567383
2018-09-22T09:35:06.137Z,56.567383
2018-09-22T09:36:06.476Z,56.268311
2018-09-22T09:37:06.348Z,56.567383
2018-09-22T09:38:07.072Z,56.066895
2018-09-22T09:39:06.831Z,55.664062
2018-09-22T09:40:06.603Z,55.865479
2018-09-22T09:41:06.763Z,55.633545
2018-09-22T09:42:06.806Z,55.230713
2018-09-22T09:43:06.926Z,55.310059
2018-09-22T09:44:07.030Z,55.004883
2018-09-22T09:45:07.121Z,55.407715
2018-09-22T09:46:07.244Z,54.980469
2018-09-22T09:47:08.289Z,54.199219
2018-09-22T09:48:07.389Z,54.400635
2018-09-22T09:49:07.661Z,54.931641
2018-09-22T09:50:07.886Z,55.004883
2018-09-22T09:51:07.829Z,54.907227
2018-09-22T09:52:07.770Z,55.407715
2018-09-22T09:53:07.838Z,54.907227
2018-09-22T09:54:07.891Z,54.907227
2018-09-22T09:55:07.955Z,55.108643
2018-09-22T09:56:08.006Z,54.602051
2018-09-22T09:57:08.073Z,54.400635
2018-09-22T09:58:08.130Z,54.278564
2018-09-22T09:59:08.132Z,52.996826
2018-09-22T10:00:08.196Z,52.716064
2018-09-22T10:01:08.272Z,53.826904
2018-09-22T10:02:08.359Z,54.730225
2018-09-22T10:03:08.409Z,54.150391
2018-09-22T10:04:08.524Z,54.858398
2018-09-22T10:05:08.526Z,54.754639
2018-09-22T10:06:08.592Z,54.553223
2018-09-22T10:07:08.705Z,54.754639
2018-09-22T10:08:08.615Z,55.059814
2018-09-22T10:09:08.746Z,54.553223
2018-09-22T10:10:08.831Z,54.077148
2018-09-22T10:11:09.043Z,54.302979
2018-09-22T10:12:09.188Z,54.907227
2018-09-22T10:13:09.174Z,55.212402
2018-09-22T10:14:09.309Z,54.907227
2018-09-22T10:15:09.535Z,53.900146
2018-09-22T10:16:09.437Z,55.010986
2018-09-22T10:17:09.527Z,54.882812
2018-09-22T10:18:09.600Z,54.681396
2018-09-22T10:19:09.657Z,54.58374
2018-09-22T10:20:09.721Z,53.070068
2018-09-22T10:21:10.694Z,52.368164
2018-09-22T10:22:09.820Z,51.763916
2018-09-22T10:23:09.849Z,51.135254
2018-09-22T10:24:09.843Z,51.513672
2018-09-22T10:25:09.886Z,51.208496
2018-09-22T10:26:09.931Z,51.409912
2018-09-22T10:27:10.069Z,51.287842
2018-09-22T10:28:10.174Z,51.489258
2018-09-22T10:29:10.280Z,51.513672
2018-09-22T10:30:10.306Z,51.409912
2018-09-22T10:31:10.399Z,51.635742
2018-09-22T10:32:10.483Z,51.538086
2018-09-22T10:33:10.657Z,51.635742
2018-09-22T10:34:10.633Z,51.434326
2018-09-22T10:35:10.756Z,51.33667
2018-09-22T10:36:10.951Z,51.611328
2018-09-22T10:37:10.863Z,51.708984
2018-09-22T10:38:10.914Z,52.416992
2018-09-22T10:39:11.120Z,52.819824
2018-09-22T10:40:11.227Z,53.118896
2018-09-22T10:41:11.258Z,52.91748
2018-09-22T10:42:11.366Z,52.618408
2018-09-22T10:43:11.331Z,53.320312
2018-09-22T10:44:11.409Z,53.045654
2018-09-22T10:45:11.487Z,53.747559
2018-09-22T10:46:11.491Z,53.521729
2018-09-22T10:47:11.617Z,52.819824
2018-09-22T10:48:11.616Z,52.01416
2018-09-22T10:49:11.691Z,53.295898
2018-09-22T10:50:11.775Z,52.593994
2018-09-22T10:51:11.837Z,53.094482
2018-09-22T10:52:11.981Z,51.586914
2018-09-22T10:53:12.099Z,51.885986
2018-09-22T10:54:12.270Z,52.313232
2018-09-22T10:55:12.278Z,51.885986
2018-09-22T10:56:12.444Z,50.402832
2018-09-22T10:57:12.583Z,50.88501
2018-09-22T10:58:12.738Z,50.256348
2018-09-22T10:59:12.858Z,49.353027
2018-09-22T11:00:12.862Z,49.87793
2018-09-22T11:01:13.123Z,49.249268
2018-09-22T11:02:12.989Z,48.046875
2018-09-22T11:03:13.128Z,47.540283
2018-09-22T11:04:13.067Z,46.936035
2018-09-22T11:05:13.047Z,47.137451
2018-09-22T11:06:13.192Z,46.435547
2018-09-22T11:07:13.200Z,47.320557
2018-09-22T11:08:13.369Z,47.119141
2018-09-22T11:09:13.444Z,47.521973
2018-09-22T11:10:13.569Z,47.540283
2018-09-22T11:11:13.581Z,47.717285
2018-09-22T11:12:13.648Z,47.418213
2018-09-22T11:13:13.735Z,47.821045
2018-09-22T11:14:13.727Z,47.338867
2018-09-22T11:15:13.801Z,47.918701
2018-09-22T11:16:13.846Z,48.120117
2018-09-22T11:17:14.015Z,48.144531
2018-09-22T11:18:14.160Z,48.345947
2018-09-22T11:19:14.266Z,48.748779
2018-09-22T11:20:14.381Z,48.724365
2018-09-22T11:21:14.439Z,49.224854
2018-09-22T11:22:14.611Z,49.005127
2018-09-22T11:23:14.727Z,49.932861
2018-09-22T11:24:14.741Z,49.829102
2018-09-22T11:25:14.903Z,49.731445
2018-09-22T11:26:14.987Z,49.829102
2018-09-22T11:27:15.047Z,50.43335
2018-09-22T11:28:15.082Z,50.958252
2018-09-22T11:29:15.177Z,51.159668
2018-09-22T11:30:15.183Z,50.860596
2018-09-22T11:31:16.222Z,51.68457
2018-09-22T11:32:15.360Z,52.191162
2018-09-22T11:33:15.403Z,53.094482
2018-09-22T11:34:15.469Z,52.667236
2018-09-22T11:35:15.736Z,53.497314
2018-09-22T11:36:15.656Z,52.79541
2018-09-22T11:37:15.765Z,52.56958
2018-09-22T11:38:15.894Z,53.747559
2018-09-22T11:39:15.879Z,51.239014
2018-09-22T11:40:15.924Z,52.34375
2018-09-22T11:41:16.044Z,52.716064
2018-09-22T11:42:16.182Z,50.286865
2018-09-22T11:43:16.280Z,49.804688
2018-09-22T11:44:16.417Z,51.361084
2018-09-22T11:45:18.182Z,52.142334
2018-09-22T11:47:15.867Z,52.593994
2018-09-22T11:48:16.859Z,53.601074
2018-09-22T11:49:17.128Z,50.634766
2018-09-22T11:50:16.098Z,51.464844
2018-09-22T11:52:59.881Z,51.861572
2018-09-22T11:54:00.493Z,52.23999
2018-09-22T11:57:38.106Z,49.951172
2018-09-22T11:59:38.479Z,49.829102
2018-09-22T12:00:38.396Z,49.328613
2018-09-22T12:01:38.426Z,50.457764
2018-09-22T12:02:38.543Z,50.152588
2018-09-22T12:03:39.124Z,49.829102
2018-09-22T12:24:16.068Z,43.42041
2018-09-22T12:25:16.127Z,41.61377
2018-09-22T12:26:16.208Z,41.912842
2018-09-22T12:27:17.202Z,43.42041
2018-09-22T12:28:16.374Z,43.798828
2018-09-22T12:29:16.515Z,42.095947
2018-09-22T12:30:16.677Z,41.973877
2018-09-22T12:31:16.734Z,45.385742
2018-09-22T12:32:16.891Z,45.812988
2018-09-22T12:33:17.006Z,46.795654
2018-09-22T12:34:17.165Z,45.489502
2018-09-22T12:35:17.046Z,42.254639
2018-09-22T12:36:17.045Z,41.253662
2018-09-22T12:37:17.062Z,41.571045
2018-09-22T12:38:17.075Z,42.755127
2018-09-22T12:39:17.275Z,44.665527
2018-09-22T12:40:17.292Z,44.744873
2018-09-22T12:41:17.393Z,45.166016
2018-09-22T12:42:17.441Z,46.270752
2018-09-22T12:43:17.615Z,47.174072
2018-09-22T12:44:17.595Z,48.480225
2018-09-22T12:45:17.605Z,47.772217
2018-09-22T12:46:17.703Z,48.980713